Dickinson Theodore Roosevelt Regional Airport
KDIK : rendu visible

Aérodrome :











RETROUVEZ-NOUS SUR...

 
LOGIN :

S'inscrire | Disclaimer

   EN    FR    IT 

 









Légende :    VFR   VFR Marginal   IFR   IFR Intensif   IFR Très Intensif
Visi : 
Plafond : 
>= 8 km
>= 3000ft
5 à 8 km
1000 à 3000 ft
1500m à 5 km
500 à 1000 ft
800 à 1500m
200 à 500 ft
< 800m
< 200 ft
Symboles :   Orages  Brouillard  Fortes neiges  Fortes précipitations  Vent > 20 kt






- Altitude de l'aérodrome : 2592 ft


KDIK - Dickinson Theodore Roosevelt Regional

DERNIER METAR :
  • 231056Z AUTO 30012KT 10SM CLR M02/M05 A2992 RMK AO2 SLP150 T10221050

METARs EXPIRÉS :
  • 230956Z AUTO 30011KT 10SM CLR M02/M05 A2991 RMK AO2 SLP146 T10171050
  • 230856Z AUTO 30011KT 10SM CLR 00/M04 A2988 RMK AO2 SLP134 T00001039 53020

TAF KDIK
Valide du 23 à 06h jusqu'au 24 à 06h UTC


230528Z 2306/2406 26012KT P6SM SKC WS012/30040KT
FM230800 29014KT P6SM FEW250



MET'MAP, la Météo Aéronautique d'un coup d'oeil ! - Copyright ORBIFLY Décembre 2007 - Disclaimer

ORBIFLY MET'MAP TEAM :

Programmation & Développement : Alexandra Zaïnal
Sur une idée originale de : Baudouin d'Aumeries
Assistance à la programmation : Marc-Olivier Méhu
Soutien technique & logistique : Manuel Goepfert

Contact : metmap@orbifly.com




SOURCES & CREDITS :

   NOAA       Earth
Advisory